createdAt,value
2023-01-22T00:04:24.871Z,20.65
2023-01-22T00:06:52.443Z,19.40
2023-01-22T00:09:22.384Z,20.38
2023-01-22T00:11:50.573Z,19.52
2023-01-22T00:14:18.196Z,20.33
2023-01-22T00:16:45.925Z,21.70
2023-01-22T00:19:13.443Z,19.83
2023-01-22T00:21:40.898Z,20.15
2023-01-22T00:24:09.028Z,22.52
2023-01-22T00:26:37.848Z,19.85
2023-01-22T00:29:05.553Z,21.73
2023-01-22T00:31:33.096Z,22.23
2023-01-22T00:34:00.781Z,21.42
2023-01-22T00:36:30.185Z,21.50
2023-01-22T00:38:57.601Z,22.35
2023-01-22T00:41:25.272Z,21.33
2023-01-22T00:43:53.879Z,21.45
2023-01-22T00:46:21.575Z,21.75
2023-01-22T00:48:50.877Z,23.02
2023-01-22T00:51:18.641Z,21.83
2023-01-22T00:53:47.230Z,22.85
2023-01-22T00:56:15.951Z,23.52
2023-01-22T00:58:44.094Z,23.50
2023-01-22T01:03:37.854Z,21.10
2023-01-22T01:06:05.846Z,21.70
2023-01-22T01:08:35.255Z,21.95
2023-01-22T01:11:04.232Z,21.73
2023-01-22T01:13:33.171Z,22.08
2023-01-22T01:16:01.962Z,22.10
2023-01-22T01:18:30.406Z,22.02
2023-01-22T01:20:58.535Z,22.42
2023-01-22T01:23:27.019Z,23.55
2023-01-22T01:25:55.018Z,23.20
2023-01-22T01:28:22.571Z,22.23
2023-01-22T01:30:50.244Z,21.67
2023-01-22T01:33:18.233Z,21.38
2023-01-22T01:35:45.956Z,21.70
2023-01-22T01:38:14.653Z,22.40
2023-01-22T01:40:46.243Z,22.10
2023-01-22T01:43:17.300Z,22.35
2023-01-22T01:45:45.280Z,22.40
2023-01-22T01:48:28.919Z,22.70
2023-01-22T01:50:59.307Z,22.40
2023-01-22T01:55:57.818Z,20.52
2023-01-22T01:58:28.801Z,19.42
2023-01-22T02:00:59.537Z,20.80
2023-01-22T02:03:28.667Z,20.02
2023-01-22T02:05:57.355Z,21.40
2023-01-22T02:08:25.444Z,20.10
2023-01-22T02:10:53.732Z,20.42
2023-01-22T02:13:23.434Z,20.67
2023-01-22T02:15:50.913Z,21.27
2023-01-22T02:18:18.613Z,20.52
2023-01-22T02:21:12.708Z,21.23
2023-01-22T02:23:40.454Z,20.90
2023-01-22T02:26:07.955Z,21.30
2023-01-22T02:28:37.704Z,21.50
2023-01-22T02:31:05.707Z,21.30
2023-01-22T02:33:35.134Z,21.50
2023-01-22T02:36:02.847Z,21.08
2023-01-22T02:38:30.623Z,20.02
2023-01-22T02:40:59.592Z,20.23
2023-01-22T02:43:28.324Z,20.95
2023-01-22T02:45:55.874Z,19.60
2023-01-22T02:48:26.910Z,19.90
2023-01-22T02:50:54.661Z,20.25
2023-01-22T02:53:22.639Z,19.75
2023-01-22T02:55:50.303Z,19.73
2023-01-22T02:58:17.875Z,20.38
2023-01-22T03:00:45.724Z,19.30
2023-01-22T03:03:15.736Z,19.23
2023-01-22T03:05:48.156Z,19.48
2023-01-22T03:08:15.851Z,19.40
2023-01-22T03:10:43.859Z,18.73
2023-01-22T03:13:30.023Z,18.17
2023-01-22T03:16:19.767Z,19.33
2023-01-22T03:19:06.038Z,19.57
2023-01-22T03:21:34.223Z,17.83
2023-01-22T03:24:02.783Z,18.88
2023-01-22T03:26:31.983Z,18.42
2023-01-22T03:29:00.198Z,20.02
2023-01-22T03:31:28.637Z,18.45
2023-01-22T03:33:57.009Z,18.60
2023-01-22T03:36:24.882Z,18.95
2023-01-22T03:38:56.097Z,19.42
2023-01-22T03:41:25.887Z,18.80
2023-01-22T03:43:54.092Z,20.08
2023-01-22T03:46:26.908Z,19.60
2023-01-22T03:49:00.188Z,17.70
2023-01-22T03:51:29.012Z,17.38
2023-01-22T03:53:57.282Z,17.67
2023-01-22T03:56:27.251Z,17.25
2023-01-22T03:59:00.767Z,18.83
2023-01-22T04:01:30.201Z,18.40
2023-01-22T04:03:58.474Z,17.73
2023-01-22T04:06:28.163Z,17.95
2023-01-22T04:08:57.160Z,17.48
2023-01-22T04:11:35.056Z,18.55
2023-01-22T04:14:07.631Z,17.67
2023-01-22T04:16:36.950Z,18.05
2023-01-22T04:19:10.596Z,18.92
2023-01-22T04:21:58.347Z,17.55
2023-01-22T04:24:25.903Z,17.30
2023-01-22T04:26:54.330Z,17.17
2023-01-22T04:29:23.159Z,16.60
2023-01-22T04:31:50.896Z,16.33
2023-01-22T04:34:21.617Z,16.90
2023-01-22T04:37:09.639Z,17.33
2023-01-22T04:39:37.421Z,15.85
2023-01-22T04:42:05.261Z,16.70
2023-01-22T04:44:33.604Z,15.85
2023-01-22T04:47:04.184Z,15.95
2023-01-22T04:49:32.519Z,17.42
2023-01-22T04:52:00.490Z,16.30
2023-01-22T04:54:30.236Z,16.75
2023-01-22T04:56:57.993Z,17.27
2023-01-22T04:59:26.031Z,17.10
2023-01-22T05:01:54.351Z,17.55
2023-01-22T05:04:23.991Z,17.20
2023-01-22T05:06:51.878Z,16.67
2023-01-22T05:09:20.208Z,17.73
2023-01-22T05:11:54.394Z,17.27
2023-01-22T05:14:22.002Z,17.08
2023-01-22T05:16:50.602Z,17.70
2023-01-22T05:19:18.143Z,17.33
2023-01-22T05:21:45.689Z,17.08
2023-01-22T05:24:18.585Z,16.88
2023-01-22T05:26:46.502Z,16.50
2023-01-22T05:29:18.742Z,16.75
2023-01-22T05:32:05.204Z,17.65
2023-01-22T05:34:37.634Z,17.15
2023-01-22T05:37:07.109Z,18.23
2023-01-22T05:39:36.084Z,17.02
2023-01-22T05:42:05.903Z,18.27
2023-01-22T05:44:34.312Z,18.58
2023-01-22T05:47:02.716Z,17.73
2023-01-22T05:49:43.599Z,18.13
2023-01-22T05:52:14.033Z,18.25
2023-01-22T05:54:42.068Z,18.33
2023-01-22T05:57:09.729Z,18.13
2023-01-22T05:59:39.282Z,19.15
2023-01-22T06:02:08.837Z,18.48
2023-01-22T06:04:41.832Z,17.95
2023-01-22T06:07:31.244Z,19.02
2023-01-22T06:09:59.996Z,17.55
2023-01-22T06:12:29.104Z,19.02
2023-01-22T06:14:56.925Z,19.20
2023-01-22T06:17:24.870Z,18.23
2023-01-22T06:19:55.534Z,18.42
2023-01-22T06:22:23.384Z,18.77
2023-01-22T06:24:55.796Z,18.63
2023-01-22T06:27:27.075Z,19.67
2023-01-22T06:29:59.400Z,18.60
2023-01-22T06:32:28.953Z,18.38
2023-01-22T06:34:59.274Z,17.85
2023-01-22T06:37:28.418Z,18.70
2023-01-22T06:40:00.990Z,18.10
2023-01-22T06:42:39.939Z,19.20
2023-01-22T06:45:08.158Z,16.63
2023-01-22T06:47:38.426Z,18.25
2023-01-22T06:50:06.327Z,17.67
2023-01-22T06:52:35.115Z,17.42
2023-01-22T06:55:03.014Z,17.42
2023-01-22T06:57:30.615Z,17.83
2023-01-22T06:59:59.146Z,17.25
2023-01-22T07:02:27.044Z,16.73
2023-01-22T07:04:54.579Z,18.10
2023-01-22T07:07:22.178Z,16.60
2023-01-22T07:09:50.687Z,16.77
2023-01-22T07:12:18.540Z,16.88
2023-01-22T07:14:46.054Z,16.35
2023-01-22T07:17:14.470Z,16.38
2023-01-22T07:19:42.313Z,15.95
2023-01-22T07:22:10.055Z,16.00
2023-01-22T07:24:37.521Z,15.50
2023-01-22T07:27:05.171Z,16.90
2023-01-22T07:29:32.940Z,15.30
2023-01-22T07:32:00.660Z,15.43
2023-01-22T07:34:30.144Z,14.68
2023-01-22T07:37:02.072Z,15.02
2023-01-22T07:39:29.949Z,14.25
2023-01-22T07:42:01.558Z,14.07
2023-01-22T07:44:36.992Z,14.80
2023-01-22T07:47:08.339Z,15.07
2023-01-22T07:49:36.162Z,14.07
2023-01-22T07:52:03.847Z,13.65
2023-01-22T07:54:33.745Z,13.52
2023-01-22T07:57:16.104Z,13.60
2023-01-22T07:59:44.017Z,13.60
2023-01-22T08:02:12.732Z,12.93
2023-01-22T08:04:41.011Z,12.95
2023-01-22T08:07:14.297Z,12.52
2023-01-22T08:09:41.846Z,12.88
2023-01-22T08:12:09.339Z,11.93
2023-01-22T08:14:37.242Z,11.88
2023-01-22T08:17:04.779Z,12.63
2023-01-22T08:19:32.647Z,12.38
2023-01-22T08:22:02.751Z,11.52
2023-01-22T08:24:30.277Z,11.98
2023-01-22T08:26:58.377Z,11.27
2023-01-22T08:29:27.255Z,11.23
2023-01-22T08:31:55.197Z,11.90
2023-01-22T08:34:23.094Z,11.52
2023-01-22T08:36:51.068Z,12.02
2023-01-22T08:39:18.518Z,12.18
2023-01-22T08:41:46.381Z,11.07
2023-01-22T08:44:14.213Z,11.60
2023-01-22T08:46:41.965Z,12.02
2023-01-22T08:49:10.145Z,11.63
2023-01-22T08:51:37.854Z,12.32
2023-01-22T08:54:05.643Z,12.35
2023-01-22T08:56:33.010Z,11.77
2023-01-22T08:59:06.651Z,11.43
2023-01-22T09:01:34.966Z,12.10
2023-01-22T09:04:06.485Z,12.27
2023-01-22T09:06:34.429Z,12.23
2023-01-22T09:09:01.993Z,12.07
2023-01-22T09:11:29.803Z,12.20
2023-01-22T09:13:58.563Z,11.85
2023-01-22T09:16:26.995Z,11.63
2023-01-22T09:18:54.626Z,11.40
2023-01-22T09:21:22.377Z,12.20
2023-01-22T09:23:50.162Z,11.98
2023-01-22T09:26:17.672Z,11.48
2023-01-22T09:28:45.443Z,12.10
2023-01-22T09:31:13.713Z,11.73
2023-01-22T09:33:41.282Z,11.98
2023-01-22T09:36:13.632Z,12.20
2023-01-22T09:38:41.389Z,11.32
2023-01-22T09:41:14.935Z,12.85
2023-01-22T09:43:48.739Z,11.65
2023-01-22T09:46:19.405Z,10.63
2023-01-22T09:48:48.943Z,11.25
2023-01-22T09:51:17.451Z,10.63
2023-01-22T09:53:47.455Z,11.00
2023-01-22T09:56:23.846Z,10.48
2023-01-22T09:58:52.848Z,10.52
2023-01-22T10:01:20.718Z,11.05
2023-01-22T10:03:51.757Z,10.43
2023-01-22T10:06:23.007Z,10.63
2023-01-22T10:08:53.494Z,10.88
2023-01-22T10:13:50.823Z,10.10
2023-01-22T10:16:18.494Z,9.57
2023-01-22T10:18:46.438Z,10.43
2023-01-22T10:21:19.539Z,10.15
2023-01-22T10:23:48.375Z,10.02
2023-01-22T10:26:28.169Z,9.95
2023-01-22T10:28:58.650Z,10.75
2023-01-22T10:31:27.262Z,9.75
2023-01-22T10:33:59.013Z,10.32
2023-01-22T10:36:31.450Z,10.05
2023-01-22T10:39:07.052Z,9.95
2023-01-22T10:41:34.618Z,9.43
2023-01-22T10:44:30.789Z,9.63
2023-01-22T10:47:08.251Z,9.13
2023-01-22T10:49:36.157Z,10.70
2023-01-22T10:52:07.307Z,9.80
2023-01-22T10:54:39.632Z,10.85
2023-01-22T10:57:10.413Z,10.07
2023-01-22T10:59:39.347Z,9.98
2023-01-22T11:02:17.209Z,10.00
2023-01-22T11:04:44.764Z,10.60
2023-01-22T11:07:17.356Z,9.93
2023-01-22T11:10:03.772Z,10.32
2023-01-22T11:12:37.142Z,10.55
2023-01-22T11:15:06.102Z,10.13
2023-01-22T11:17:43.954Z,9.63
2023-01-22T11:20:19.236Z,9.88
2023-01-22T11:22:51.852Z,10.25
2023-01-22T11:25:20.270Z,10.45
2023-01-22T11:27:59.468Z,10.55
2023-01-22T11:30:27.756Z,11.10
2023-01-22T11:33:02.073Z,10.35
2023-01-22T11:35:39.477Z,9.95
2023-01-22T11:38:07.361Z,10.18
2023-01-22T11:40:44.092Z,9.60
2023-01-22T11:43:11.547Z,9.73
2023-01-22T11:45:55.523Z,11.30
2023-01-22T11:48:41.131Z,9.88
2023-01-22T11:51:11.770Z,10.80
2023-01-22T11:53:58.964Z,9.80
2023-01-22T11:56:29.840Z,9.02
2023-01-22T11:59:16.262Z,10.48
2023-01-22T12:01:55.573Z,9.63
2023-01-22T12:04:52.841Z,10.40
2023-01-22T12:07:45.669Z,9.63
2023-01-22T12:10:22.315Z,11.25
2023-01-22T12:12:50.256Z,10.55
2023-01-22T12:15:21.199Z,11.10
2023-01-22T12:18:03.190Z,11.07
2023-01-22T12:20:54.105Z,10.90
2023-01-22T12:23:27.120Z,10.48
2023-01-22T12:26:00.817Z,10.80
2023-01-22T12:28:32.792Z,10.23
2023-01-22T12:31:09.598Z,10.95
2023-01-22T12:33:41.408Z,9.80
2023-01-22T12:36:13.125Z,9.90
2023-01-22T12:38:59.747Z,9.98
2023-01-22T12:41:30.834Z,9.93
2023-01-22T12:44:18.091Z,10.13
2023-01-22T12:46:51.466Z,10.30
2023-01-22T12:49:21.103Z,10.80
2023-01-22T12:51:50.471Z,10.65
2023-01-22T12:54:25.631Z,10.10
2023-01-22T12:56:58.210Z,11.07
2023-01-22T12:59:33.493Z,10.65
2023-01-22T13:02:02.468Z,10.60
2023-01-22T13:04:34.566Z,10.20
2023-01-22T13:07:06.695Z,10.75
2023-01-22T13:09:38.120Z,10.65
2023-01-22T13:12:09.813Z,11.00
2023-01-22T13:14:41.215Z,10.88
2023-01-22T13:17:20.296Z,11.05
2023-01-22T13:19:50.489Z,10.95
2023-01-22T13:24:50.239Z,10.32
2023-01-22T13:27:27.304Z,11.00
2023-01-22T13:30:07.666Z,11.25
2023-01-22T13:32:35.303Z,10.57
2023-01-22T13:35:20.226Z,12.20
2023-01-22T13:37:51.954Z,11.07
2023-01-22T13:40:28.056Z,11.00
2023-01-22T13:42:59.521Z,11.65
2023-01-22T13:45:29.093Z,11.82
2023-01-22T13:47:58.708Z,12.50
2023-01-22T13:50:33.024Z,12.53
2023-01-22T13:53:03.626Z,11.43
2023-01-22T13:55:32.091Z,12.32
2023-01-22T13:58:04.908Z,12.05
2023-01-22T14:00:36.851Z,11.65
2023-01-22T14:03:22.373Z,12.70
2023-01-22T14:05:50.501Z,11.52
2023-01-22T14:08:19.060Z,12.55
2023-01-22T14:10:58.385Z,12.52
2023-01-22T14:13:26.014Z,12.02
2023-01-22T14:15:59.849Z,12.30
2023-01-22T14:18:29.724Z,11.65
2023-01-22T14:20:59.135Z,11.95
2023-01-22T14:23:26.954Z,12.35
2023-01-22T14:25:55.871Z,12.75
2023-01-22T14:28:24.128Z,12.48
2023-01-22T14:30:52.546Z,11.45
2023-01-22T14:33:21.932Z,12.88
2023-01-22T14:35:50.831Z,11.73
2023-01-22T14:38:19.113Z,12.90
2023-01-22T14:40:47.270Z,11.70
2023-01-22T14:43:16.395Z,15.13
2023-01-22T14:45:45.383Z,13.27
2023-01-22T14:48:14.069Z,13.13
2023-01-22T14:50:42.292Z,13.70
2023-01-22T14:53:10.346Z,13.77
2023-01-22T14:55:37.852Z,13.10
2023-01-22T14:58:06.251Z,12.93
2023-01-22T15:00:35.359Z,13.27
2023-01-22T15:03:03.194Z,13.82
2023-01-22T15:05:30.729Z,14.20
2023-01-22T15:08:02.169Z,12.85
2023-01-22T15:10:29.879Z,12.80
2023-01-22T15:12:58.276Z,12.90
2023-01-22T15:15:28.731Z,12.57
2023-01-22T15:20:25.764Z,13.85
2023-01-22T15:22:54.571Z,13.32
2023-01-22T15:25:22.177Z,13.45
2023-01-22T15:27:49.951Z,13.57
2023-01-22T15:30:18.107Z,13.35
2023-01-22T15:32:45.761Z,14.02
2023-01-22T15:35:13.459Z,13.73
2023-01-22T15:37:41.000Z,14.80
2023-01-22T15:40:10.310Z,14.80
2023-01-22T15:42:37.818Z,14.02
2023-01-22T15:45:06.846Z,14.77
2023-01-22T15:47:35.343Z,13.68
2023-01-22T15:50:04.029Z,14.52
2023-01-22T15:52:32.000Z,13.55
2023-01-22T15:55:00.446Z,14.20
2023-01-22T15:57:28.754Z,15.10
2023-01-22T15:59:56.997Z,15.88
2023-01-22T16:02:24.542Z,15.20
2023-01-22T16:04:52.156Z,15.85
2023-01-22T16:07:20.067Z,14.40
2023-01-22T16:09:47.679Z,14.63
2023-01-22T16:12:15.366Z,14.15
2023-01-22T16:14:43.155Z,14.60
2023-01-22T16:17:10.843Z,14.98
2023-01-22T16:19:38.379Z,14.90
2023-01-22T16:22:06.390Z,15.15
2023-01-22T16:24:35.277Z,14.70
2023-01-22T16:27:03.977Z,14.52
2023-01-22T16:29:31.409Z,14.25
2023-01-22T16:32:08.694Z,15.93
2023-01-22T16:34:36.309Z,15.75
2023-01-22T16:37:03.979Z,14.25
2023-01-22T16:39:33.956Z,15.35
2023-01-22T16:42:02.108Z,15.75
2023-01-22T16:44:31.293Z,15.18
2023-01-22T16:47:01.320Z,16.27
2023-01-22T16:49:33.313Z,16.42
2023-01-22T16:52:16.568Z,15.40
2023-01-22T16:54:49.501Z,14.98
2023-01-22T16:57:18.355Z,16.17
2023-01-22T16:59:46.319Z,16.13
2023-01-22T17:02:15.646Z,16.27
2023-01-22T17:04:43.421Z,16.58
2023-01-22T17:07:27.388Z,15.77
2023-01-22T17:10:01.027Z,15.68
2023-01-22T17:12:30.456Z,16.95
2023-01-22T17:14:58.217Z,15.60
2023-01-22T17:17:26.937Z,16.25
2023-01-22T17:19:54.431Z,16.20
2023-01-22T17:22:22.742Z,15.52
2023-01-22T17:24:53.389Z,17.05
2023-01-22T17:27:21.623Z,15.73
2023-01-22T17:29:49.222Z,16.30
2023-01-22T17:32:16.780Z,15.48
2023-01-22T17:34:44.301Z,16.05
2023-01-22T17:37:13.770Z,18.00
2023-01-22T17:39:43.175Z,17.13
2023-01-22T17:42:11.083Z,16.35
2023-01-22T17:44:40.885Z,16.48
2023-01-22T17:47:08.515Z,16.42
2023-01-22T17:49:36.559Z,16.42
2023-01-22T17:52:04.388Z,16.70
2023-01-22T17:54:32.561Z,16.42
2023-01-22T17:57:00.930Z,16.05
2023-01-22T17:59:29.425Z,16.88
2023-01-22T18:01:58.315Z,16.27
2023-01-22T18:04:26.046Z,16.13
2023-01-22T18:06:55.470Z,16.70
2023-01-22T18:09:23.454Z,16.30
2023-01-22T18:11:51.051Z,16.73
2023-01-22T18:14:23.298Z,16.83
2023-01-22T18:16:51.285Z,17.70
2023-01-22T18:19:18.958Z,15.95
2023-01-22T18:21:46.503Z,16.75
2023-01-22T18:24:14.384Z,17.42
2023-01-22T18:26:42.091Z,16.38
2023-01-22T18:29:11.604Z,15.85
2023-01-22T18:31:39.427Z,16.42
2023-01-22T18:34:07.708Z,16.42
2023-01-22T18:36:37.041Z,17.08
2023-01-22T18:39:06.943Z,17.60
2023-01-22T18:41:37.287Z,18.30
2023-01-22T18:44:05.075Z,18.00
2023-01-22T18:46:34.065Z,17.45
2023-01-22T18:49:02.713Z,18.25
2023-01-22T18:51:30.685Z,17.90
2023-01-22T18:53:59.552Z,18.25
2023-01-22T18:56:27.057Z,17.52
2023-01-22T18:58:55.510Z,19.58
2023-01-22T19:01:25.706Z,18.30
2023-01-22T19:03:54.461Z,19.67
2023-01-22T19:06:23.344Z,19.50
2023-01-22T19:08:56.594Z,20.45
2023-01-22T19:11:25.641Z,18.85
2023-01-22T19:13:54.514Z,18.58
2023-01-22T19:16:25.107Z,19.73
2023-01-22T19:19:00.271Z,20.25
2023-01-22T19:21:28.856Z,19.45
2023-01-22T19:24:00.637Z,19.48
2023-01-22T19:26:32.058Z,21.35
2023-01-22T19:29:02.412Z,21.02
2023-01-22T19:31:34.802Z,20.17
2023-01-22T19:34:03.158Z,19.48
2023-01-22T19:36:32.051Z,20.15
2023-01-22T19:39:03.954Z,20.27
2023-01-22T19:41:31.787Z,19.95
2023-01-22T19:44:02.501Z,20.42
2023-01-22T19:46:30.200Z,22.10
2023-01-22T19:48:58.643Z,21.63
2023-01-22T19:51:28.564Z,22.15
2023-01-22T19:54:04.878Z,20.70
2023-01-22T19:56:34.131Z,19.95
2023-01-22T19:59:06.341Z,20.33
2023-01-22T20:01:34.671Z,20.90
2023-01-22T20:04:03.863Z,20.42
2023-01-22T20:06:31.667Z,20.80
2023-01-22T20:09:01.736Z,25.33
2023-01-22T20:11:29.631Z,22.67
2023-01-22T20:13:58.379Z,22.67
2023-01-22T20:16:28.628Z,20.67
2023-01-22T20:18:58.184Z,19.92
2023-01-22T20:21:31.024Z,20.00
2023-01-22T20:23:59.230Z,24.75
2023-01-22T20:26:27.202Z,27.58
2023-01-22T20:28:55.335Z,26.55
2023-01-22T20:31:24.201Z,23.30
2023-01-22T20:33:53.031Z,20.90
2023-01-22T20:36:21.595Z,21.58
2023-01-22T20:38:52.584Z,20.52
2023-01-22T20:41:21.859Z,23.00
2023-01-22T20:43:50.050Z,20.77
2023-01-22T20:46:19.491Z,20.60
2023-01-22T20:48:47.295Z,20.00
2023-01-22T20:51:17.076Z,20.50
2023-01-22T20:53:45.567Z,19.83
2023-01-22T20:56:14.732Z,19.38
2023-01-22T20:58:42.822Z,20.42
2023-01-22T21:01:15.944Z,19.52
2023-01-22T21:03:44.549Z,20.92
2023-01-22T21:06:14.164Z,20.33
2023-01-22T21:08:42.549Z,20.20
2023-01-22T21:11:12.539Z,21.98
2023-01-22T21:13:40.456Z,19.95
2023-01-22T21:16:12.981Z,20.45
2023-01-22T21:18:43.778Z,20.17
2023-01-22T21:21:12.776Z,20.63
2023-01-22T21:23:40.354Z,20.42
2023-01-22T21:26:09.376Z,19.77
2023-01-22T21:28:37.552Z,19.88
2023-01-22T21:31:08.968Z,19.75
2023-01-22T21:33:38.859Z,19.35
2023-01-22T21:36:06.983Z,20.08
2023-01-22T21:38:34.643Z,20.38
2023-01-22T21:41:10.198Z,20.38
2023-01-22T21:43:59.575Z,21.98
2023-01-22T21:46:28.544Z,19.58
2023-01-22T21:48:59.648Z,20.52
2023-01-22T21:51:28.596Z,20.45
2023-01-22T21:53:57.096Z,20.73
2023-01-22T21:56:25.296Z,20.17
2023-01-22T21:58:52.958Z,22.25
2023-01-22T22:01:22.894Z,20.67
2023-01-22T22:03:50.599Z,20.08
2023-01-22T22:06:18.743Z,20.48
2023-01-22T22:08:46.639Z,20.45
2023-01-22T22:11:14.752Z,20.33
2023-01-22T22:13:42.375Z,20.48
2023-01-22T22:16:11.450Z,19.05
2023-01-22T22:18:39.605Z,19.20
2023-01-22T22:21:08.941Z,20.13
2023-01-22T22:23:37.307Z,20.75
2023-01-22T22:26:05.846Z,19.92
2023-01-22T22:28:33.931Z,19.60
2023-01-22T22:31:11.954Z,18.80
2023-01-22T22:33:40.197Z,20.40
2023-01-22T22:36:08.205Z,20.17
2023-01-22T22:38:35.887Z,18.92
2023-01-22T22:41:05.220Z,19.55
2023-01-22T22:43:34.212Z,18.87
2023-01-22T22:46:02.832Z,18.45
2023-01-22T22:48:30.401Z,19.25
2023-01-22T22:50:58.900Z,19.58
2023-01-22T22:53:27.106Z,18.67
2023-01-22T22:55:54.699Z,19.83
2023-01-22T22:58:27.377Z,19.50
2023-01-22T23:00:55.121Z,18.55
2023-01-22T23:03:22.628Z,18.10
2023-01-22T23:05:50.799Z,20.17
2023-01-22T23:08:18.483Z,19.05
2023-01-22T23:10:45.973Z,18.20
2023-01-22T23:13:13.447Z,19.02
2023-01-22T23:15:40.981Z,18.70
2023-01-22T23:18:09.094Z,18.90
2023-01-22T23:20:36.739Z,19.25
2023-01-22T23:23:04.462Z,19.10
2023-01-22T23:25:32.007Z,19.05
2023-01-22T23:27:59.551Z,17.25
2023-01-22T23:30:27.967Z,18.83
2023-01-22T23:32:55.465Z,18.10
2023-01-22T23:35:23.098Z,19.13
2023-01-22T23:37:50.856Z,18.13
2023-01-22T23:40:18.717Z,18.02
2023-01-22T23:42:50.549Z,17.98
2023-01-22T23:45:18.366Z,18.83
2023-01-22T23:47:45.823Z,18.58
2023-01-22T23:50:13.379Z,18.80
2023-01-22T23:52:40.912Z,18.88
2023-01-22T23:55:08.706Z,19.55
2023-01-22T23:57:36.527Z,19.38
